createdAt,value
2016-04-29T00:00:06.767Z,4.5
2016-04-29T00:00:16.752Z,4.4
2016-04-29T00:00:26.755Z,4.6
2016-04-29T00:00:36.755Z,4.5
2016-04-29T00:00:46.739Z,4.4
2016-04-29T00:00:56.739Z,4.4
2016-04-29T00:01:06.739Z,4.5
2016-04-29T00:01:16.723Z,4.4
2016-04-29T00:01:26.726Z,4.5
2016-04-29T00:01:36.726Z,4.5
2016-04-29T00:01:46.726Z,4.4
2016-04-29T00:01:56.695Z,4.5
2016-04-29T00:02:06.711Z,4.4
2016-04-29T00:02:16.695Z,4.4
2016-04-29T00:02:26.697Z,4.5
2016-04-29T00:02:36.697Z,4.5
2016-04-29T00:02:46.682Z,4.4
2016-04-29T00:02:56.666Z,4.4
2016-04-29T00:03:06.666Z,4.4
2016-04-29T00:03:16.666Z,4.5
2016-04-29T00:03:26.653Z,4.5
2016-04-29T00:03:36.653Z,4.5
2016-04-29T00:03:46.653Z,4.4
2016-04-29T00:03:56.638Z,4.4
2016-04-29T00:04:06.622Z,4.4
2016-04-29T00:04:16.622Z,4.4
2016-04-29T00:04:26.625Z,4.5
2016-04-29T00:04:36.625Z,4.4
2016-04-29T00:04:46.609Z,4.5
2016-04-29T00:04:56.609Z,4.5
2016-04-29T00:05:06.609Z,4.4
2016-04-29T00:05:16.594Z,4.4
2016-04-29T00:05:26.596Z,4.5
2016-04-29T00:05:36.596Z,4.4
2016-04-29T00:05:46.596Z,4.4
2016-04-29T00:05:56.565Z,4.4
2016-04-29T00:06:06.565Z,4.4
2016-04-29T00:06:16.565Z,4.4
2016-04-29T00:06:26.552Z,4.4
2016-04-29T00:06:36.552Z,4.4
2016-04-29T00:06:46.536Z,4.5
2016-04-29T00:06:56.536Z,4.4
2016-04-29T00:07:06.536Z,4.4
2016-04-29T00:07:16.521Z,4.5
2016-04-29T00:07:26.523Z,4.4
2016-04-29T00:07:36.507Z,4.3
2016-04-29T00:07:46.507Z,4.4
2016-04-29T00:07:56.507Z,4.4
2016-04-29T00:08:06.491Z,4.4
2016-04-29T00:08:16.491Z,4.4
2016-04-29T00:08:26.494Z,4.4
2016-04-29T00:08:36.479Z,4.4
2016-04-29T00:08:46.479Z,4.5
2016-04-29T00:08:56.463Z,4.4
2016-04-29T00:09:06.463Z,4.4
2016-04-29T00:09:16.463Z,4.3
2016-04-29T00:09:26.451Z,4.4
2016-04-29T00:09:36.451Z,4.4
2016-04-29T00:09:46.451Z,4.4
2016-04-29T00:09:56.435Z,4.3
2016-04-29T00:10:06.435Z,4.4
2016-04-29T00:10:16.419Z,4.3
2016-04-29T00:10:26.422Z,4.4
2016-04-29T00:10:36.407Z,4.4
2016-04-29T00:10:46.407Z,4.4
2016-04-29T00:10:56.407Z,4.4
2016-04-29T00:11:06.407Z,4.4
2016-04-29T00:11:16.407Z,4.4
2016-04-29T00:11:26.394Z,4.4
2016-04-29T00:11:36.378Z,4.4
2016-04-29T00:11:46.378Z,4.4
2016-04-29T00:11:56.363Z,4.4
2016-04-29T00:12:06.363Z,4.4
2016-04-29T00:12:16.363Z,4.4
2016-04-29T00:12:26.348Z,4.3
2016-04-29T00:12:36.348Z,4.3
2016-04-29T00:12:46.348Z,4.3
2016-04-29T00:12:56.333Z,4.3
2016-04-29T00:13:06.333Z,4.4
2016-04-29T00:13:16.333Z,4.4
2016-04-29T00:13:26.335Z,4.4
2016-04-29T00:13:36.335Z,4.4
2016-04-29T00:13:46.335Z,4.4
2016-04-29T00:13:56.319Z,4.4
2016-04-29T00:14:06.319Z,4.4
2016-04-29T00:14:16.304Z,4.4
2016-04-29T00:14:26.347Z,4.4
2016-04-29T00:14:36.331Z,4.4
2016-04-29T00:14:46.331Z,4.4
2016-04-29T00:14:56.565Z,4.4
2016-04-29T00:15:06.597Z,4.4
2016-04-29T00:15:16.925Z,4.4
2016-04-29T00:15:26.315Z,4.4
2016-04-29T00:15:36.811Z,4.4
2016-04-29T00:15:46.342Z,4.4
2016-04-29T00:15:56.326Z,4.3
2016-04-29T00:16:06.326Z,4.4
2016-04-29T00:16:16.326Z,4.4
2016-04-29T00:16:26.311Z,4.4
2016-04-29T00:16:36.354Z,4.4
2016-04-29T00:16:46.338Z,4.4
2016-04-29T00:16:56.338Z,4.4
2016-04-29T00:17:06.338Z,4.4
2016-04-29T00:17:16.322Z,4.4
2016-04-29T00:17:26.322Z,4.5
2016-04-29T00:17:36.349Z,4.4
2016-04-29T00:17:46.349Z,4.4
2016-04-29T00:17:56.349Z,4.4
2016-04-29T00:18:06.349Z,4.4
2016-04-29T00:18:16.333Z,4.4
2016-04-29T00:18:26.333Z,4.4
2016-04-29T00:18:36.351Z,4.4
2016-04-29T00:18:46.351Z,4.4
2016-04-29T00:18:56.336Z,4.4
2016-04-29T00:19:06.336Z,4.4
2016-04-29T00:19:16.336Z,4.4
2016-04-29T00:19:26.336Z,4.3
2016-04-29T00:19:36.337Z,4.3
2016-04-29T00:19:46.337Z,4.3
2016-04-29T00:19:56.322Z,4.3
2016-04-29T00:20:09.009Z,4.3
2016-04-29T00:20:18.993Z,4.4
2016-04-29T00:20:29.009Z,4.4
2016-04-29T00:20:38.994Z,4.4
2016-04-29T00:20:48.994Z,4.4
2016-04-29T00:20:58.994Z,4.4
2016-04-29T00:21:08.994Z,4.4
2016-04-29T00:21:18.978Z,4.4
2016-04-29T00:21:28.981Z,4.4
2016-04-29T00:21:38.981Z,4.4
2016-04-29T00:21:48.981Z,4.4
2016-04-29T00:21:58.981Z,4.4
2016-04-29T00:22:08.965Z,4.4
2016-04-29T00:22:18.965Z,4.4
2016-04-29T00:22:28.965Z,4.4
2016-04-29T00:22:38.965Z,4.4
2016-04-29T00:22:48.950Z,4.4
2016-04-29T00:22:58.965Z,4.4
2016-04-29T00:23:08.950Z,4.4
2016-04-29T00:23:18.950Z,4.5
2016-04-29T00:23:28.948Z,4.4
2016-04-29T00:23:38.948Z,4.4
2016-04-29T00:23:48.932Z,4.4
2016-04-29T00:23:58.932Z,4.4
2016-04-29T00:24:08.932Z,4.4
2016-04-29T00:24:18.917Z,4.4
2016-04-29T00:24:28.925Z,4.4
2016-04-29T00:24:38.909Z,4.4
2016-04-29T00:24:48.925Z,4.4
2016-04-29T00:24:58.909Z,4.5
2016-04-29T00:25:08.894Z,4.4
2016-04-29T00:25:18.894Z,4.4
2016-04-29T00:25:28.901Z,4.4
2016-04-29T00:25:38.885Z,4.4
2016-04-29T00:25:48.885Z,4.5
2016-04-29T00:25:58.869Z,4.4
2016-04-29T00:26:08.869Z,4.4
2016-04-29T00:26:18.854Z,4.4
2016-04-29T00:26:28.862Z,4.5
2016-04-29T00:26:38.862Z,4.4
2016-04-29T00:26:48.846Z,4.4
2016-04-29T00:26:58.846Z,4.4
2016-04-29T00:27:08.830Z,4.4
2016-04-29T00:27:18.830Z,4.4
2016-04-29T00:27:28.837Z,4.4
2016-04-29T00:27:38.822Z,4.4
2016-04-29T00:27:48.822Z,4.4
2016-04-29T00:27:58.822Z,4.5
2016-04-29T00:28:08.806Z,4.4
2016-04-29T00:28:18.806Z,4.4
2016-04-29T00:28:28.798Z,4.5
2016-04-29T00:28:38.798Z,4.4
2016-04-29T00:28:48.798Z,4.4
2016-04-29T00:28:58.782Z,4.4
2016-04-29T00:29:08.782Z,4.4
2016-04-29T00:29:18.782Z,4.4
2016-04-29T00:29:28.771Z,4.4
2016-04-29T00:29:38.771Z,4.4
2016-04-29T00:29:48.818Z,4.5
2016-04-29T00:29:59.396Z,4.5
2016-04-29T00:30:09.365Z,4.4
2016-04-29T00:30:18.896Z,4.4
2016-04-29T00:30:29.385Z,4.5
2016-04-29T00:30:38.900Z,4.5
2016-04-29T00:30:48.994Z,4.5
2016-04-29T00:30:58.728Z,4.4
2016-04-29T00:31:08.713Z,4.4
2016-04-29T00:31:18.713Z,4.4
2016-04-29T00:31:28.702Z,4.4
2016-04-29T00:31:38.702Z,4.4
2016-04-29T00:31:48.702Z,4.4
2016-04-29T00:31:58.687Z,4.4
2016-04-29T00:32:08.687Z,4.5
2016-04-29T00:32:18.687Z,4.4
2016-04-29T00:32:28.675Z,4.4
2016-04-29T00:32:38.675Z,4.4
2016-04-29T00:32:48.659Z,4.5
2016-04-29T00:32:58.659Z,4.5
2016-04-29T00:33:08.644Z,4.4
2016-04-29T00:33:18.644Z,4.5
2016-04-29T00:33:28.649Z,4.5
2016-04-29T00:33:38.649Z,4.4
2016-04-29T00:33:48.633Z,4.4
2016-04-29T00:33:58.633Z,4.4
2016-04-29T00:34:08.633Z,4.4
2016-04-29T00:34:18.617Z,4.4
2016-04-29T00:34:28.620Z,4.4
2016-04-29T00:34:38.605Z,4.4
2016-04-29T00:34:48.605Z,4.4
2016-04-29T00:34:58.589Z,4.5
2016-04-29T00:35:08.589Z,4.4
2016-04-29T00:35:18.589Z,4.5
2016-04-29T00:35:28.578Z,4.5
2016-04-29T00:35:38.578Z,4.4
2016-04-29T00:35:48.578Z,4.4
2016-04-29T00:35:58.562Z,4.4
2016-04-29T00:36:08.562Z,4.4
2016-04-29T00:36:18.546Z,4.5
2016-04-29T00:36:28.549Z,4.4
2016-04-29T00:36:38.549Z,4.4
2016-04-29T00:36:48.534Z,4.4
2016-04-29T00:36:58.534Z,4.4
2016-04-29T00:37:08.534Z,4.4
2016-04-29T00:37:18.518Z,4.4
2016-04-29T00:37:28.505Z,4.4
2016-04-29T00:37:38.505Z,4.4
2016-04-29T00:37:48.505Z,4.4
2016-04-29T00:37:58.490Z,4.4
2016-04-29T00:38:08.490Z,4.5
2016-04-29T00:38:18.490Z,4.4
2016-04-29T00:38:28.478Z,4.4
2016-04-29T00:38:38.478Z,4.5
2016-04-29T00:38:48.478Z,4.5
2016-04-29T00:38:58.463Z,4.5
2016-04-29T00:39:08.463Z,4.4
2016-04-29T00:39:18.447Z,4.4
2016-04-29T00:39:28.451Z,4.4
2016-04-29T00:39:38.451Z,4.5
2016-04-29T00:39:48.435Z,4.4
2016-04-29T00:39:58.435Z,4.4
2016-04-29T00:40:08.435Z,4.4
2016-04-29T00:40:18.435Z,4.5
2016-04-29T00:40:28.422Z,4.4
2016-04-29T00:40:38.422Z,4.4
2016-04-29T00:40:48.406Z,4.4
2016-04-29T00:40:58.390Z,4.5
2016-04-29T00:41:08.390Z,4.4
2016-04-29T00:41:18.390Z,4.4
2016-04-29T00:41:28.378Z,4.5
2016-04-29T00:41:38.378Z,4.4
2016-04-29T00:41:48.362Z,4.4
2016-04-29T00:41:58.362Z,4.4
2016-04-29T00:42:08.362Z,4.4
2016-04-29T00:42:18.362Z,4.4
2016-04-29T00:42:28.350Z,4.4
2016-04-29T00:42:38.334Z,4.4
2016-04-29T00:42:48.334Z,4.4
2016-04-29T00:42:58.334Z,4.4
2016-04-29T00:43:08.334Z,4.5
2016-04-29T00:43:18.318Z,4.5
2016-04-29T00:43:28.321Z,4.4
2016-04-29T00:43:38.306Z,4.4
2016-04-29T00:43:48.306Z,4.4
2016-04-29T00:43:58.306Z,4.4
2016-04-29T00:44:08.290Z,4.4
2016-04-29T18:19:08.000Z,8.2
2016-04-29T18:19:17.984Z,8.2
2016-04-29T18:19:27.984Z,8.1
2016-04-29T18:19:37.984Z,8.1
2016-04-29T18:19:47.987Z,8.1
2016-04-29T18:19:57.987Z,8.1
2016-04-29T18:20:07.972Z,8.2
2016-04-29T18:20:17.956Z,8.2
2016-04-29T18:20:27.967Z,8.2
2016-04-29T18:20:37.957Z,8.2
2016-04-29T18:20:47.960Z,8.2
2016-04-29T18:20:57.944Z,8.2
2016-04-29T18:21:07.929Z,8.1
2016-04-29T18:21:17.929Z,8.2
2016-04-29T18:21:27.929Z,8.2
2016-04-29T18:21:37.929Z,8.2
2016-04-29T18:21:47.916Z,8.1
2016-04-29T18:21:57.916Z,8.2
2016-04-29T18:22:07.900Z,8.2
2016-04-29T18:22:17.900Z,8.2
2016-04-29T18:22:27.900Z,8.2
2016-04-29T18:22:37.885Z,8.2
2016-04-29T18:22:47.888Z,8.1
2016-04-29T18:22:57.888Z,8.2
2016-04-29T18:23:07.872Z,8.2
2016-04-29T18:23:17.872Z,8.2
2016-04-29T18:23:27.872Z,8.2
2016-04-29T18:23:37.872Z,8.2
2016-04-29T18:23:47.858Z,8.2
2016-04-29T18:23:57.843Z,8.2
2016-04-29T18:24:07.843Z,8.1
2016-04-29T18:24:17.843Z,8.1
2016-04-29T18:24:27.827Z,8.2
2016-04-29T18:24:37.827Z,8.1
2016-04-29T18:24:47.830Z,8.1
2016-04-29T18:24:57.830Z,8.2
2016-04-29T18:25:07.815Z,8.2
2016-04-29T18:25:17.815Z,8.1
2016-04-29T18:25:27.799Z,8.2
2016-04-29T18:25:37.799Z,8.2
2016-04-29T22:35:28.449Z,7.4
2016-04-29T22:35:38.449Z,7.5
2016-04-29T22:35:48.434Z,7.4
2016-04-29T22:35:58.434Z,7.5
2016-04-29T22:36:08.436Z,7.5
2016-04-29T22:36:18.420Z,7.5
2016-04-29T22:36:28.451Z,7.5
2016-04-29T22:36:38.405Z,7.4
2016-04-29T22:36:48.405Z,7.5
2016-04-29T22:36:58.405Z,7.5
2016-04-29T22:37:08.392Z,7.4
2016-04-29T22:37:18.392Z,7.4
2016-04-29T22:37:28.392Z,7.4
2016-04-29T22:37:38.376Z,7.4
2016-04-29T22:37:48.376Z,7.5
2016-04-29T22:37:58.361Z,7.4
2016-04-29T22:38:08.364Z,7.5
2016-04-29T22:38:18.364Z,7.5
2016-04-29T22:38:28.348Z,7.5
2016-04-29T22:38:38.348Z,7.3
2016-04-29T22:38:48.348Z,7.5
2016-04-29T22:38:58.348Z,7.5
2016-04-29T22:39:08.335Z,7.5
2016-04-29T22:39:18.335Z,7.5
2016-04-29T22:39:28.320Z,7.5
2016-04-29T22:39:38.320Z,7.4
2016-04-29T22:39:48.304Z,7.5
2016-04-29T22:39:58.304Z,7.4
2016-04-29T22:40:08.292Z,7.5
2016-04-29T22:40:18.292Z,7.5
2016-04-29T22:40:28.292Z,7.5
2016-04-29T22:40:38.292Z,7.5
2016-04-29T22:40:48.276Z,7.5
2016-04-29T22:40:58.276Z,7.4
2016-04-29T22:41:08.263Z,7.5
2016-04-29T22:41:18.263Z,7.4
2016-04-29T22:41:28.248Z,7.5
2016-04-29T22:41:38.248Z,7.5
2016-04-29T22:41:48.263Z,7.5
2016-04-29T22:41:58.248Z,7.5
2016-04-29T22:42:08.234Z,7.5
2016-04-29T22:42:18.234Z,7.5
2016-04-29T22:42:28.234Z,7.5
2016-04-29T22:42:38.218Z,7.4
2016-04-29T22:42:48.218Z,7.5
2016-04-29T22:42:58.203Z,7.5
2016-04-29T22:43:08.205Z,7.5
2016-04-29T22:43:18.189Z,7.4
2016-04-29T22:43:28.189Z,7.4
2016-04-29T22:43:38.189Z,7.5
2016-04-29T22:43:48.174Z,7.5
2016-04-29T22:43:58.174Z,7.5
2016-04-29T22:44:08.177Z,7.5
2016-04-29T22:44:18.161Z,7.5
2016-04-29T22:44:28.161Z,7.3
2016-04-29T22:44:38.161Z,7.5
2016-04-29T22:44:48.145Z,7.5
2016-04-29T22:44:58.145Z,7.5
2016-04-29T22:45:08.147Z,7.5
2016-04-29T22:45:18.132Z,7.5
2016-04-29T22:45:28.132Z,7.5
2016-04-29T22:45:38.132Z,7.5
2016-04-29T22:45:48.132Z,7.5
2016-04-29T22:45:58.116Z,7.5
2016-04-29T22:46:08.103Z,7.5
2016-04-29T22:46:18.103Z,7.4
2016-04-29T22:46:28.088Z,7.4
2016-04-29T22:46:38.088Z,7.5
2016-04-29T22:46:48.088Z,7.5
2016-04-29T22:46:58.088Z,7.5
2016-04-29T22:47:08.072Z,7.5
2016-04-29T22:47:18.076Z,7.5
2016-04-29T22:47:28.076Z,7.5
2016-04-29T22:47:38.061Z,7.5
2016-04-29T22:47:48.045Z,7.5
2016-04-29T22:47:58.045Z,7.5
2016-04-29T22:48:08.045Z,7.4
2016-04-29T22:48:18.047Z,7.5
2016-04-29T22:48:28.031Z,7.5
2016-04-29T22:48:38.219Z,7.4
2016-04-29T22:48:48.016Z,7.5
2016-04-29T22:48:59.047Z,7.4
2016-04-29T22:49:08.016Z,7.4
2016-04-29T22:49:18.018Z,7.4
2016-04-29T22:49:28.002Z,7.4
2016-04-29T22:49:37.986Z,7.5
2016-04-29T22:49:47.986Z,7.4
2016-04-29T22:49:57.971Z,7.4
2016-04-29T22:50:07.971Z,7.5
2016-04-29T22:50:17.974Z,7.5
2016-04-29T22:50:27.974Z,7.4
2016-04-29T22:50:37.958Z,7.5
2016-04-29T22:50:47.958Z,7.5
2016-04-29T22:50:57.958Z,7.4
2016-04-29T22:51:07.943Z,7.4
2016-04-29T22:51:17.946Z,7.6
2016-04-29T22:51:27.946Z,7.5
2016-04-29T22:51:37.930Z,7.5
2016-04-29T22:51:47.930Z,7.5
2016-04-29T22:51:57.930Z,7.4
2016-04-29T22:52:07.914Z,7.5
2016-04-29T22:52:17.916Z,7.4
2016-04-29T22:52:27.901Z,7.4
2016-04-29T22:52:37.901Z,7.5
2016-04-29T22:52:47.901Z,7.5
2016-04-29T22:52:57.885Z,7.4
2016-04-29T22:53:07.885Z,7.5
2016-04-29T22:53:17.872Z,7.5
2016-04-29T22:53:27.872Z,7.6
2016-04-29T22:53:37.872Z,7.4
2016-04-29T22:53:47.857Z,7.5
2016-04-29T22:53:57.857Z,7.5
2016-04-29T22:54:07.841Z,7.5
2016-04-29T22:54:17.845Z,7.5
2016-04-29T22:54:27.845Z,7.5
2016-04-29T22:54:37.830Z,7.5
2016-04-29T22:54:47.845Z,7.5
2016-04-29T22:54:57.830Z,7.5
2016-04-29T22:55:07.830Z,7.5
2016-04-29T22:55:17.816Z,7.5
2016-04-29T22:55:27.816Z,7.5
2016-04-29T22:55:37.800Z,7.5
2016-04-29T22:55:47.785Z,7.4
2016-04-29T22:55:57.785Z,7.5
2016-04-29T22:56:07.785Z,7.5
2016-04-29T22:56:17.787Z,7.5
2016-04-29T22:56:27.787Z,7.5
2016-04-29T22:56:37.771Z,7.4
2016-04-29T22:56:47.771Z,7.5
2016-04-29T22:56:57.755Z,7.5
2016-04-29T22:57:07.755Z,7.4
2016-04-29T22:57:17.744Z,7.6
2016-04-29T22:57:27.744Z,7.5
2016-04-29T22:57:37.744Z,7.4
2016-04-29T22:57:47.728Z,7.5
2016-04-29T22:57:57.728Z,7.4
2016-04-29T22:58:07.728Z,7.4
2016-04-29T22:58:17.715Z,7.5
2016-04-29T22:58:27.715Z,7.5
2016-04-29T22:58:37.715Z,7.5
2016-04-29T22:58:47.699Z,7.4
2016-04-29T22:58:57.699Z,7.5
2016-04-29T22:59:07.699Z,7.4
2016-04-29T22:59:17.686Z,7.4
2016-04-29T22:59:27.686Z,7.5
2016-04-29T22:59:37.671Z,7.5
2016-04-29T22:59:47.671Z,7.4
2016-04-29T22:59:57.671Z,7.4
2016-04-29T23:00:07.655Z,7.5
2016-04-29T23:00:17.658Z,7.5
2016-04-29T23:00:27.642Z,7.5
2016-04-29T23:00:37.642Z,7.4
2016-04-29T23:00:47.642Z,7.5
2016-04-29T23:00:57.627Z,7.4
2016-04-29T23:01:07.627Z,7.5
2016-04-29T23:01:17.629Z,7.5
2016-04-29T23:01:27.613Z,7.4
2016-04-29T23:01:37.598Z,7.4
2016-04-29T23:01:47.598Z,7.5
2016-04-29T23:01:57.598Z,7.4
2016-04-29T23:02:07.598Z,7.5
2016-04-29T23:02:17.600Z,7.5
2016-04-29T23:02:27.584Z,7.4
2016-04-29T23:02:37.584Z,7.4
2016-04-29T23:02:47.568Z,7.5
2016-04-29T23:02:57.568Z,7.6
2016-04-29T23:03:07.553Z,7.5
2016-04-29T23:03:17.884Z,7.5
2016-04-29T23:03:27.556Z,7.5
2016-04-29T23:03:37.540Z,7.5
2016-04-29T23:03:47.540Z,7.5
2016-04-29T23:03:57.540Z,7.5
2016-04-29T23:04:07.524Z,7.5
2016-04-29T23:04:17.527Z,7.4
2016-04-29T23:04:27.527Z,7.5
2016-04-29T23:04:37.512Z,7.5
2016-04-29T23:04:47.512Z,7.5
2016-04-29T23:04:57.496Z,7.4
2016-04-29T23:05:07.496Z,7.4
2016-04-29T23:05:17.499Z,7.5
2016-04-29T23:05:27.484Z,7.4
2016-04-29T23:05:37.484Z,7.4
2016-04-29T23:05:47.484Z,7.5
2016-04-29T23:05:57.468Z,7.5
2016-04-29T23:06:07.468Z,7.5
2016-04-29T23:06:17.455Z,7.5
2016-04-29T23:06:27.455Z,7.5
2016-04-29T23:06:37.455Z,7.5
2016-04-29T23:06:47.440Z,7.5
2016-04-29T23:06:57.440Z,7.4
2016-04-29T23:07:07.440Z,7.5
2016-04-29T23:07:17.426Z,7.5
2016-04-29T23:07:27.426Z,7.4
2016-04-29T23:07:37.426Z,7.5
2016-04-29T23:07:47.410Z,7.5
2016-04-29T23:07:57.410Z,7.5
2016-04-29T23:08:07.410Z,7.5
2016-04-29T23:08:17.397Z,7.5
2016-04-29T23:08:27.397Z,7.5
2016-04-29T23:08:37.381Z,7.5
2016-04-29T23:08:47.381Z,7.4
2016-04-29T23:08:57.381Z,7.6
2016-04-29T23:09:07.366Z,7.5
2016-04-29T23:09:17.370Z,7.4
2016-04-29T23:09:27.354Z,7.5
2016-04-29T23:09:37.354Z,7.5
2016-04-29T23:09:47.354Z,7.5
2016-04-29T23:09:57.338Z,7.5
2016-04-29T23:10:07.338Z,7.4
2016-04-29T23:10:17.341Z,7.5
2016-04-29T23:10:27.326Z,7.5
2016-04-29T23:10:37.326Z,7.5
2016-04-29T23:10:47.310Z,7.5
2016-04-29T23:10:57.310Z,7.5
2016-04-29T23:11:07.310Z,7.4
2016-04-29T23:11:17.296Z,7.5
2016-04-29T23:11:27.296Z,7.5
2016-04-29T23:11:37.281Z,7.5
2016-04-29T23:11:47.281Z,7.5
2016-04-29T23:11:57.281Z,7.5
2016-04-29T23:12:07.265Z,7.5
2016-04-29T23:12:17.268Z,7.5
2016-04-29T23:12:27.268Z,7.5
2016-04-29T23:12:37.268Z,7.5
2016-04-29T23:12:47.253Z,7.5
2016-04-29T23:12:57.253Z,7.5
2016-04-29T23:13:07.237Z,7.5
2016-04-29T23:13:17.240Z,7.5
2016-04-29T23:13:27.224Z,7.4
2016-04-29T23:13:37.224Z,7.5
2016-04-29T23:13:47.224Z,7.5
2016-04-29T23:13:57.224Z,7.5
2016-04-29T23:14:07.209Z,7.5
2016-04-29T23:14:17.211Z,7.5
2016-04-29T23:14:27.211Z,7.5
2016-04-29T23:14:37.195Z,7.5
2016-04-29T23:14:47.195Z,7.4
2016-04-29T23:14:57.179Z,7.5
2016-04-29T23:15:07.179Z,7.5
2016-04-29T23:15:17.167Z,7.4
2016-04-29T23:15:27.167Z,7.5
2016-04-29T23:15:37.182Z,7.5
2016-04-29T23:15:47.167Z,7.5
2016-04-29T23:15:57.151Z,7.4
2016-04-29T23:16:07.151Z,7.5
2016-04-29T23:16:17.139Z,7.5
2016-04-29T23:16:27.139Z,7.5
2016-04-29T23:16:37.139Z,7.5
2016-04-29T23:16:47.123Z,7.5
2016-04-29T23:16:57.123Z,7.6
2016-04-29T23:17:07.107Z,7.5
2016-04-29T23:17:17.109Z,7.5
2016-04-29T23:17:27.109Z,7.4
2016-04-29T23:17:37.094Z,7.6
2016-04-29T23:17:47.109Z,7.4
2016-04-29T23:17:57.094Z,7.5
2016-04-29T23:18:07.078Z,7.5
2016-04-29T23:18:17.612Z,7.6
2016-04-29T23:18:27.065Z,7.5
2016-04-29T23:18:37.065Z,7.6
2016-04-29T23:18:47.065Z,7.6
2016-04-29T23:18:57.065Z,7.4
2016-04-29T23:19:07.050Z,7.5
2016-04-29T23:19:17.052Z,7.6
2016-04-29T23:19:27.036Z,7.5
2016-04-29T23:19:37.036Z,7.5
2016-04-29T23:19:47.021Z,7.5
2016-04-29T23:19:57.021Z,7.6
2016-04-29T23:20:07.005Z,7.5
2016-04-29T23:20:17.024Z,7.6
2016-04-29T23:20:27.008Z,7.5
2016-04-29T23:20:37.008Z,7.6
2016-04-29T23:20:47.008Z,7.5
2016-04-29T23:20:56.992Z,7.5
2016-04-29T23:21:06.992Z,7.5
2016-04-29T23:21:16.980Z,7.5
2016-04-29T23:21:26.980Z,7.6
2016-04-29T23:21:36.964Z,7.6
2016-04-29T23:21:46.964Z,7.5
2016-04-29T23:21:56.964Z,7.6
2016-04-29T23:22:06.948Z,7.5
2016-04-29T23:22:16.950Z,7.5
2016-04-29T23:22:26.950Z,7.5
2016-04-29T23:22:36.935Z,7.5
2016-04-29T23:22:46.935Z,7.6
2016-04-29T23:22:56.919Z,7.6
2016-04-29T23:23:06.919Z,7.6
2016-04-29T23:23:16.908Z,7.6
2016-04-29T23:23:26.908Z,7.6
2016-04-29T23:23:36.908Z,7.6
2016-04-29T23:23:46.908Z,7.6
2016-04-29T23:23:56.892Z,7.6
2016-04-29T23:24:06.892Z,7.6
2016-04-29T23:24:16.878Z,7.5
2016-04-29T23:24:26.878Z,7.7
2016-04-29T23:24:36.878Z,7.7
2016-04-29T23:24:46.863Z,7.6
2016-04-29T23:24:56.863Z,7.5
2016-04-29T23:25:06.863Z,7.7
2016-04-29T23:25:16.865Z,7.6
2016-04-29T23:25:26.849Z,7.6
2016-04-29T23:25:36.849Z,7.6
2016-04-29T23:25:46.833Z,7.6
2016-04-29T23:25:56.833Z,7.6
2016-04-29T23:26:06.818Z,7.7
2016-04-29T23:26:16.821Z,7.6
2016-04-29T23:26:26.821Z,7.6
2016-04-29T23:26:36.821Z,7.7
2016-04-29T23:26:46.805Z,7.6
2016-04-29T23:26:56.805Z,7.6
2016-04-29T23:27:06.790Z,7.6
2016-04-29T23:27:16.793Z,7.7
2016-04-29T23:27:26.793Z,7.6
2016-04-29T23:27:36.777Z,7.6
2016-04-29T23:27:46.777Z,7.6
2016-04-29T23:27:56.777Z,7.6
2016-04-29T23:28:06.761Z,7.6
2016-04-29T23:28:16.764Z,7.6
2016-04-29T23:28:26.749Z,7.7
2016-04-29T23:28:36.749Z,7.6
2016-04-29T23:28:46.749Z,7.6
2016-04-29T23:28:56.733Z,7.7
2016-04-29T23:29:06.733Z,7.6
2016-04-29T23:29:16.720Z,7.6
2016-04-29T23:29:26.720Z,7.6
2016-04-29T23:29:36.720Z,7.7
2016-04-29T23:29:46.720Z,7.6
2016-04-29T23:29:56.705Z,7.6
2016-04-29T23:30:06.705Z,7.7
2016-04-29T23:30:16.691Z,7.6
2016-04-29T23:30:26.691Z,7.6
2016-04-29T23:30:36.676Z,7.7
2016-04-29T23:30:46.676Z,7.6
2016-04-29T23:30:56.676Z,7.6
2016-04-29T23:31:06.676Z,7.7
2016-04-29T23:31:16.663Z,7.6
2016-04-29T23:31:26.663Z,7.6
2016-04-29T23:31:36.647Z,7.6
2016-04-29T23:31:46.647Z,7.6
2016-04-29T23:31:56.647Z,7.6
2016-04-29T23:32:06.632Z,7.6
2016-04-29T23:32:16.635Z,7.6
2016-04-29T23:32:26.619Z,7.6
2016-04-29T23:32:36.619Z,7.6
2016-04-29T23:32:46.619Z,7.6
2016-04-29T23:32:56.619Z,7.6
2016-04-29T23:33:06.603Z,7.5
2016-04-29T23:33:16.605Z,7.5
2016-04-29T23:33:26.590Z,7.6
2016-04-29T23:33:36.590Z,7.7
2016-04-29T23:33:46.574Z,7.7
2016-04-29T23:33:56.574Z,7.6
2016-04-29T23:34:06.559Z,7.6
2016-04-29T23:34:16.577Z,7.6
2016-04-29T23:34:26.562Z,7.6
2016-04-29T23:34:36.562Z,7.6
2016-04-29T23:34:46.546Z,7.6
2016-04-29T23:34:56.546Z,7.6
2016-04-29T23:35:06.530Z,7.7
2016-04-29T23:35:16.533Z,7.6
2016-04-29T23:35:26.533Z,7.7
2016-04-29T23:35:36.518Z,7.6
2016-04-29T23:35:46.518Z,7.6
2016-04-29T23:35:56.518Z,7.6
2016-04-29T23:36:06.502Z,7.7
2016-04-29T23:36:16.504Z,7.7
2016-04-29T23:36:26.504Z,7.7
2016-04-29T23:36:36.488Z,7.6
2016-04-29T23:36:46.488Z,7.7
2016-04-29T23:36:56.473Z,7.7
2016-04-29T23:37:06.473Z,7.7
2016-04-29T23:37:16.476Z,7.7
2016-04-29T23:37:26.460Z,7.6
2016-04-29T23:37:36.460Z,7.7
2016-04-29T23:37:46.460Z,7.7
2016-04-29T23:37:56.445Z,7.6
2016-04-29T23:38:06.445Z,7.7
2016-04-29T23:38:16.431Z,7.7
2016-04-29T23:38:26.431Z,7.7
2016-04-29T23:38:36.431Z,7.7
2016-04-29T23:38:46.415Z,7.7
2016-04-29T23:38:56.415Z,7.7
2016-04-29T23:39:06.415Z,7.7
2016-04-29T23:39:16.403Z,7.7
2016-04-29T23:39:26.403Z,7.7
2016-04-29T23:39:36.403Z,7.7
2016-04-29T23:39:46.387Z,7.7
2016-04-29T23:39:56.387Z,7.7
2016-04-29T23:40:06.387Z,7.7
2016-04-29T23:40:16.374Z,7.7
2016-04-29T23:40:26.359Z,7.7
2016-04-29T23:40:36.359Z,7.7
2016-04-29T23:40:46.359Z,7.7
2016-04-29T23:40:56.359Z,7.7
2016-04-29T23:41:06.343Z,7.6
2016-04-29T23:41:16.345Z,7.7
2016-04-29T23:41:26.345Z,7.6
2016-04-29T23:41:36.330Z,7.6
2016-04-29T23:41:46.330Z,7.7
2016-04-29T23:41:56.330Z,7.7
2016-04-29T23:42:06.376Z,7.7
2016-04-29T23:42:16.317Z,7.6
2016-04-29T23:42:26.301Z,7.7
2016-04-29T23:42:36.301Z,7.7
2016-04-29T23:42:46.286Z,7.7
2016-04-29T23:42:56.286Z,7.7
2016-04-29T23:43:06.286Z,7.7
2016-04-29T23:43:16.289Z,7.7
2016-04-29T23:43:26.289Z,7.7
2016-04-29T23:43:36.257Z,7.7
2016-04-29T23:43:46.257Z,7.7
2016-04-29T23:43:56.257Z,7.7
2016-04-29T23:44:06.257Z,7.7
2016-04-29T23:44:16.245Z,7.7
2016-04-29T23:44:26.245Z,7.7
2016-04-29T23:44:36.245Z,7.6
2016-04-29T23:44:46.276Z,7.7
2016-04-29T23:44:56.214Z,7.7
2016-04-29T23:45:06.214Z,7.5
2016-04-29T23:45:16.216Z,7.7
2016-04-29T23:45:26.216Z,7.7
2016-04-29T23:45:36.216Z,7.6
2016-04-29T23:45:46.200Z,7.6
2016-04-29T23:45:56.200Z,7.7
2016-04-29T23:46:06.184Z,7.7
2016-04-29T23:46:16.187Z,7.7
2016-04-29T23:46:26.172Z,7.7
2016-04-29T23:46:36.172Z,7.7
2016-04-29T23:46:46.172Z,7.7
2016-04-29T23:46:56.156Z,7.7
2016-04-29T23:47:06.156Z,7.7
2016-04-29T23:47:16.143Z,7.7
2016-04-29T23:47:26.143Z,7.7
2016-04-29T23:47:36.143Z,7.7
2016-04-29T23:47:46.143Z,7.7
2016-04-29T23:47:56.128Z,7.7
2016-04-29T23:48:06.128Z,7.7
2016-04-29T23:48:16.115Z,7.7
2016-04-29T23:48:26.115Z,7.7
2016-04-29T23:48:36.100Z,7.7
2016-04-29T23:48:46.100Z,7.7
2016-04-29T23:48:56.725Z,7.7
2016-04-29T23:49:06.100Z,7.6
2016-04-29T23:49:16.087Z,7.7
2016-04-29T23:49:26.087Z,7.7
2016-04-29T23:49:36.087Z,7.6
2016-04-29T23:49:46.071Z,7.6
2016-04-29T23:49:56.071Z,7.6
2016-04-29T23:50:06.071Z,7.6
2016-04-29T23:50:16.058Z,7.7
2016-04-29T23:50:26.042Z,7.6
2016-04-29T23:50:36.042Z,7.6
2016-04-29T23:50:46.042Z,7.6
2016-04-29T23:50:56.042Z,7.6
2016-04-29T23:51:06.026Z,7.6
2016-04-29T23:51:16.029Z,7.6
2016-04-29T23:51:26.029Z,7.5
2016-04-29T23:51:36.014Z,7.6
2016-04-29T23:51:46.014Z,7.6
2016-04-29T23:51:55.998Z,7.6
2016-04-29T23:52:05.998Z,7.5
2016-04-29T23:52:16.000Z,7.5
2016-04-29T23:52:25.985Z,7.5
2016-04-29T23:52:35.985Z,7.6
2016-04-29T23:52:45.985Z,7.6
2016-04-29T23:52:55.969Z,7.5
2016-04-29T23:53:05.953Z,7.5
2016-04-29T23:53:15.956Z,7.6
2016-04-29T23:53:25.956Z,7.6
2016-04-29T23:53:35.956Z,7.5
2016-04-29T23:53:45.941Z,7.6
2016-04-29T23:53:55.941Z,7.5
2016-04-29T23:54:05.941Z,7.5
2016-04-29T23:54:15.928Z,7.5
2016-04-29T23:54:25.928Z,7.5
2016-04-29T23:54:35.912Z,7.5
2016-04-29T23:54:45.912Z,7.5
2016-04-29T23:54:55.912Z,7.5
2016-04-29T23:55:05.897Z,7.6
2016-04-29T23:55:15.899Z,7.4
2016-04-29T23:55:25.899Z,7.5
2016-04-29T23:55:35.883Z,7.5
2016-04-29T23:55:45.883Z,7.5
2016-04-29T23:55:55.868Z,7.5
2016-04-29T23:56:05.868Z,7.4
2016-04-29T23:56:15.871Z,7.4
2016-04-29T23:56:25.855Z,7.5
2016-04-29T23:56:35.855Z,7.5
2016-04-29T23:56:45.839Z,7.5
2016-04-29T23:56:55.839Z,7.5
2016-04-29T23:57:05.839Z,7.4
2016-04-29T23:57:15.826Z,7.5
2016-04-29T23:57:25.826Z,7.4
2016-04-29T23:57:35.826Z,7.4
2016-04-29T23:57:45.810Z,7.5
2016-04-29T23:57:55.810Z,7.5
2016-04-29T23:58:05.794Z,7.5
2016-04-29T23:58:15.797Z,7.4
2016-04-29T23:58:25.797Z,7.4
2016-04-29T23:58:35.797Z,7.5
2016-04-29T23:58:45.782Z,7.5
2016-04-29T23:58:55.782Z,7.5
2016-04-29T23:59:05.766Z,7.4
2016-04-29T23:59:15.766Z,7.5
2016-04-29T23:59:25.754Z,7.5
2016-04-29T23:59:35.769Z,7.3
2016-04-29T23:59:45.754Z,7.5
2016-04-29T23:59:55.754Z,7.4
